sensor_id;sensor_type;location;lat;lon;timestamp;pressure;altitude;pressure_sealevel;temperature;humidity
73679;BME280;61978;52.742;16.962;2022-12-01T00:00:58;102328.17;;;2.93;100.00
73679;BME280;61978;52.742;16.962;2022-12-01T00:03:28;102334.81;;;2.93;100.00
73679;BME280;61978;52.742;16.962;2022-12-01T00:06:02;102330.84;;;2.86;100.00
73679;BME280;61978;52.742;16.962;2022-12-01T00:08:30;102325.88;;;2.94;100.00
73679;BME280;61978;52.742;16.962;2022-12-01T00:11:07;102333.80;;;2.82;100.00
73679;BME280;61978;52.742;16.962;2022-12-01T00:13:33;102326.40;;;2.79;100.00
73679;BME280;61978;52.742;16.962;2022-12-01T00:16:12;102332.95;;;2.74;100.00
73679;BME280;61978;52.742;16.962;2022-12-01T00:18:38;102326.98;;;2.70;100.00
73679;BME280;61978;52.742;16.962;2022-12-01T00:21:05;102311.33;;;2.80;100.00
73679;BME280;61978;52.742;16.962;2022-12-01T00:23:32;102299.72;;;2.95;100.00
73679;BME280;61978;52.742;16.962;2022-12-01T00:26:02;102296.39;;;2.99;100.00
73679;BME280;61978;52.742;16.962;2022-12-01T00:28:29;102305.57;;;3.00;100.00
73679;BME280;61978;52.742;16.962;2022-12-01T00:30:55;102312.45;;;2.90;100.00
73679;BME280;61978;52.742;16.962;2022-12-01T00:33:22;102312.06;;;2.89;100.00
73679;BME280;61978;52.742;16.962;2022-12-01T00:35:49;102305.03;;;2.95;100.00
73679;BME280;61978;52.742;16.962;2022-12-01T00:38:15;102310.34;;;2.95;100.00
73679;BME280;61978;52.742;16.962;2022-12-01T00:40:41;102308.81;;;2.98;100.00
73679;BME280;61978;52.742;16.962;2022-12-01T00:43:08;102306.88;;;3.07;100.00
73679;BME280;61978;52.742;16.962;2022-12-01T00:45:34;102309.55;;;3.00;100.00
73679;BME280;61978;52.742;16.962;2022-12-01T00:48:00;102303.77;;;3.01;100.00
73679;BME280;61978;52.742;16.962;2022-12-01T00:50:26;102300.63;;;3.08;100.00
73679;BME280;61978;52.742;16.962;2022-12-01T00:52:53;102305.09;;;3.01;100.00
73679;BME280;61978;52.742;16.962;2022-12-01T00:55:19;102313.39;;;2.89;100.00
73679;BME280;61978;52.742;16.962;2022-12-01T00:57:46;102313.45;;;2.68;100.00
73679;BME280;61978;52.742;16.962;2022-12-01T01:00:15;102292.95;;;2.77;100.00
73679;BME280;61978;52.742;16.962;2022-12-01T01:02:43;102281.75;;;2.86;100.00
73679;BME280;61978;52.742;16.962;2022-12-01T01:05:10;102276.23;;;2.89;100.00
73679;BME280;61978;52.742;16.962;2022-12-01T01:07:36;102278.16;;;2.87;100.00
73679;BME280;61978;52.742;16.962;2022-12-01T01:10:04;102264.21;;;2.91;100.00
73679;BME280;61978;52.742;16.962;2022-12-01T01:12:31;102276.09;;;2.78;100.00
73679;BME280;61978;52.742;16.962;2022-12-01T01:14:57;102273.38;;;2.72;100.00
73679;BME280;61978;52.742;16.962;2022-12-01T01:17:24;102270.80;;;2.78;100.00
73679;BME280;61978;52.742;16.962;2022-12-01T01:19:52;102261.39;;;2.79;100.00
73679;BME280;61978;52.742;16.962;2022-12-01T01:22:19;102273.11;;;2.63;100.00
73679;BME280;61978;52.742;16.962;2022-12-01T01:24:45;102272.92;;;2.59;100.00
73679;BME280;61978;52.742;16.962;2022-12-01T01:27:13;102276.83;;;2.53;100.00
73679;BME280;61978;52.742;16.962;2022-12-01T01:29:39;102266.67;;;2.60;100.00
73679;BME280;61978;52.742;16.962;2022-12-01T01:32:07;102271.52;;;2.53;100.00
73679;BME280;61978;52.742;16.962;2022-12-01T01:34:34;102280.53;;;2.51;100.00
73679;BME280;61978;52.742;16.962;2022-12-01T01:37:00;102280.17;;;2.43;100.00
73679;BME280;61978;52.742;16.962;2022-12-01T01:39:29;102292.47;;;2.44;100.00
73679;BME280;61978;52.742;16.962;2022-12-01T01:41:54;102282.72;;;2.44;100.00
73679;BME280;61978;52.742;16.962;2022-12-01T01:44:50;102285.28;;;2.46;100.00
73679;BME280;61978;52.742;16.962;2022-12-01T01:47:23;102270.47;;;2.56;100.00
73679;BME280;61978;52.742;16.962;2022-12-01T01:49:49;102284.81;;;2.39;100.00
73679;BME280;61978;52.742;16.962;2022-12-01T01:52:17;102289.27;;;2.46;100.00
73679;BME280;61978;52.742;16.962;2022-12-01T01:54:47;102291.53;;;2.45;100.00
73679;BME280;61978;52.742;16.962;2022-12-01T01:57:16;102292.97;;;2.36;100.00
73679;BME280;61978;52.742;16.962;2022-12-01T01:59:46;102291.92;;;2.46;100.00
73679;BME280;61978;52.742;16.962;2022-12-01T02:02:13;102291.33;;;2.48;100.00
73679;BME280;61978;52.742;16.962;2022-12-01T02:04:45;102304.20;;;2.47;100.00
73679;BME280;61978;52.742;16.962;2022-12-01T02:07:15;102298.35;;;2.49;100.00
73679;BME280;61978;52.742;16.962;2022-12-01T02:09:42;102302.14;;;2.45;100.00
73679;BME280;61978;52.742;16.962;2022-12-01T02:12:25;102295.11;;;2.58;100.00
73679;BME280;61978;52.742;16.962;2022-12-01T02:15:01;102297.18;;;2.60;100.00
73679;BME280;61978;52.742;16.962;2022-12-01T02:17:36;102297.53;;;2.68;100.00
73679;BME280;61978;52.742;16.962;2022-12-01T02:26:01;102300.38;;;2.72;100.00
73679;BME280;61978;52.742;16.962;2022-12-01T02:28:51;102309.66;;;2.72;100.00
73679;BME280;61978;52.742;16.962;2022-12-01T02:31:21;102311.17;;;2.76;100.00
73679;BME280;61978;52.742;16.962;2022-12-01T02:33:58;102309.06;;;2.81;100.00
73679;BME280;61978;52.742;16.962;2022-12-01T02:36:37;102314.53;;;2.85;100.00
73679;BME280;61978;52.742;16.962;2022-12-01T02:39:07;102304.15;;;2.82;100.00
73679;BME280;61978;52.742;16.962;2022-12-01T02:41:41;102277.80;;;3.18;100.00
73679;BME280;61978;52.742;16.962;2022-12-01T02:49:31;102314.28;;;3.29;100.00
73679;BME280;61978;52.742;16.962;2022-12-01T02:51:59;102354.84;;;2.77;100.00
73679;BME280;61978;52.742;16.962;2022-12-01T02:54:28;102335.48;;;2.49;100.00
73679;BME280;61978;52.742;16.962;2022-12-01T02:56:56;102316.72;;;2.45;100.00
73679;BME280;61978;52.742;16.962;2022-12-01T02:59:23;102299.29;;;2.48;100.00
73679;BME280;61978;52.742;16.962;2022-12-01T03:04:56;102281.86;;;2.44;100.00
73679;BME280;61978;52.742;16.962;2022-12-01T03:13:15;102255.53;;;2.41;100.00
73679;BME280;61978;52.742;16.962;2022-12-01T03:20:43;102237.48;;;2.40;100.00
73679;BME280;61978;52.742;16.962;2022-12-01T03:23:12;102225.23;;;2.38;100.00
73679;BME280;61978;52.742;16.962;2022-12-01T03:25:42;102194.59;;;3.12;100.00
73679;BME280;61978;52.742;16.962;2022-12-01T03:28:11;102210.08;;;3.25;100.00
73679;BME280;61978;52.742;16.962;2022-12-01T03:30:40;102223.64;;;3.21;100.00
73679;BME280;61978;52.742;16.962;2022-12-01T03:33:15;102223.34;;;3.25;100.00
73679;BME280;61978;52.742;16.962;2022-12-01T03:35:50;102226.91;;;3.31;100.00
73679;BME280;61978;52.742;16.962;2022-12-01T03:38:20;102231.22;;;3.40;100.00
73679;BME280;61978;52.742;16.962;2022-12-01T03:40:44;102240.72;;;3.36;100.00
73679;BME280;61978;52.742;16.962;2022-12-01T03:43:14;102240.52;;;3.40;100.00
73679;BME280;61978;52.742;16.962;2022-12-01T03:48:22;102256.13;;;3.31;100.00
73679;BME280;61978;52.742;16.962;2022-12-01T03:51:26;102269.23;;;3.27;100.00
73679;BME280;61978;52.742;16.962;2022-12-01T03:53:59;102257.87;;;3.25;100.00
73679;BME280;61978;52.742;16.962;2022-12-01T03:56:28;102259.58;;;3.26;100.00
73679;BME280;61978;52.742;16.962;2022-12-01T03:58:56;102267.90;;;3.27;100.00
73679;BME280;61978;52.742;16.962;2022-12-01T04:01:24;102267.75;;;3.23;100.00
73679;BME280;61978;52.742;16.962;2022-12-01T04:03:52;102263.20;;;3.18;100.00
73679;BME280;61978;52.742;16.962;2022-12-01T04:06:19;102251.05;;;3.21;100.00
73679;BME280;61978;52.742;16.962;2022-12-01T04:08:50;102239.07;;;3.28;100.00
73679;BME280;61978;52.742;16.962;2022-12-01T04:11:17;102245.71;;;3.28;100.00
73679;BME280;61978;52.742;16.962;2022-12-01T04:14:04;102250.43;;;3.30;100.00
73679;BME280;61978;52.742;16.962;2022-12-01T04:16:31;102260.26;;;3.23;100.00
73679;BME280;61978;52.742;16.962;2022-12-01T04:19:01;102256.01;;;3.20;100.00
73679;BME280;61978;52.742;16.962;2022-12-01T04:21:31;102248.66;;;3.24;100.00
73679;BME280;61978;52.742;16.962;2022-12-01T04:23:59;102239.72;;;3.32;100.00
73679;BME280;61978;52.742;16.962;2022-12-01T04:26:29;102241.52;;;3.31;100.00
73679;BME280;61978;52.742;16.962;2022-12-01T04:29:00;102243.23;;;3.32;100.00
73679;BME280;61978;52.742;16.962;2022-12-01T04:31:27;102241.52;;;3.31;100.00
73679;BME280;61978;52.742;16.962;2022-12-01T04:33:57;102236.47;;;3.34;100.00
73679;BME280;61978;52.742;16.962;2022-12-01T04:36:25;102233.66;;;3.43;100.00
73679;BME280;61978;52.742;16.962;2022-12-01T04:38:52;102222.53;;;3.50;100.00
73679;BME280;61978;52.742;16.962;2022-12-01T04:41:19;102220.48;;;3.54;100.00
73679;BME280;61978;52.742;16.962;2022-12-01T04:43:47;102209.13;;;3.64;100.00
73679;BME280;61978;52.742;16.962;2022-12-01T04:46:14;102234.32;;;3.59;100.00
73679;BME280;61978;52.742;16.962;2022-12-01T04:48:44;102238.94;;;3.50;100.00
73679;BME280;61978;52.742;16.962;2022-12-01T04:51:11;102248.06;;;3.46;100.00
73679;BME280;61978;52.742;16.962;2022-12-01T04:53:45;102252.43;;;3.47;100.00
73679;BME280;61978;52.742;16.962;2022-12-01T04:56:16;102252.05;;;3.46;100.00
73679;BME280;61978;52.742;16.962;2022-12-01T04:58:45;102263.09;;;3.40;100.00
73679;BME280;61978;52.742;16.962;2022-12-01T05:01:16;102253.20;;;3.42;100.00
73679;BME280;61978;52.742;16.962;2022-12-01T05:03:46;102251.13;;;3.40;100.00
73679;BME280;61978;52.742;16.962;2022-12-01T05:06:21;102251.88;;;3.42;100.00
73679;BME280;61978;52.742;16.962;2022-12-01T05:08:52;102256.39;;;3.34;100.00
73679;BME280;61978;52.742;16.962;2022-12-01T05:11:19;102249.96;;;3.31;100.00
73679;BME280;61978;52.742;16.962;2022-12-01T05:13:49;102251.97;;;3.27;100.00
73679;BME280;61978;52.742;16.962;2022-12-01T05:16:24;102240.88;;;3.28;100.00
73679;BME280;61978;52.742;16.962;2022-12-01T05:18:55;102242.67;;;3.27;100.00
73679;BME280;61978;52.742;16.962;2022-12-01T05:21:24;102228.92;;;3.28;100.00
73679;BME280;61978;52.742;16.962;2022-12-01T05:23:50;102229.19;;;3.30;100.00
73679;BME280;61978;52.742;16.962;2022-12-01T05:26:17;102228.84;;;3.29;100.00
73679;BME280;61978;52.742;16.962;2022-12-01T05:28:47;102232.64;;;3.25;100.00
73679;BME280;61978;52.742;16.962;2022-12-01T05:31:14;102235.59;;;3.21;100.00
73679;BME280;61978;52.742;16.962;2022-12-01T05:33:41;102225.15;;;3.25;100.00
73679;BME280;61978;52.742;16.962;2022-12-01T05:36:08;102224.08;;;3.27;100.00
73679;BME280;61978;52.742;16.962;2022-12-01T05:38:37;102221.22;;;3.30;100.00
73679;BME280;61978;52.742;16.962;2022-12-01T05:41:07;102228.66;;;3.25;100.00
73679;BME280;61978;52.742;16.962;2022-12-01T05:43:34;102237.09;;;3.25;100.00
73679;BME280;61978;52.742;16.962;2022-12-01T05:46:02;102230.45;;;3.25;100.00
73679;BME280;61978;52.742;16.962;2022-12-01T05:48:30;102224.64;;;3.32;100.00
73679;BME280;61978;52.742;16.962;2022-12-01T05:50:58;102219.00;;;3.37;100.00
73679;BME280;61978;52.742;16.962;2022-12-01T05:53:30;102213.95;;;3.40;100.00
73679;BME280;61978;52.742;16.962;2022-12-01T05:56:02;102231.81;;;3.38;100.00
73679;BME280;61978;52.742;16.962;2022-12-01T05:58:32;102223.25;;;3.40;100.00
73679;BME280;61978;52.742;16.962;2022-12-01T06:01:03;102229.50;;;3.38;100.00
73679;BME280;61978;52.742;16.962;2022-12-01T06:03:29;102236.86;;;3.35;100.00
73679;BME280;61978;52.742;16.962;2022-12-01T06:05:56;102229.75;;;3.35;100.00
73679;BME280;61978;52.742;16.962;2022-12-01T06:08:23;102224.19;;;3.38;100.00
73679;BME280;61978;52.742;16.962;2022-12-01T06:10:54;102217.13;;;3.45;100.00
73679;BME280;61978;52.742;16.962;2022-12-01T06:13:20;102241.84;;;3.40;100.00
73679;BME280;61978;52.742;16.962;2022-12-01T06:15:59;102242.70;;;3.40;100.00
73679;BME280;61978;52.742;16.962;2022-12-01T06:18:32;102231.27;;;3.45;100.00
73679;BME280;61978;52.742;16.962;2022-12-01T06:21:01;102248.86;;;3.41;100.00
73679;BME280;61978;52.742;16.962;2022-12-01T06:23:33;102250.75;;;3.38;100.00
73679;BME280;61978;52.742;16.962;2022-12-01T06:26:09;102239.92;;;3.42;100.00
73679;BME280;61978;52.742;16.962;2022-12-01T06:28:42;102242.48;;;3.43;100.00
73679;BME280;61978;52.742;16.962;2022-12-01T06:31:17;102240.27;;;3.50;100.00
73679;BME280;61978;52.742;16.962;2022-12-01T06:33:46;102242.92;;;3.50;100.00
73679;BME280;61978;52.742;16.962;2022-12-01T06:36:14;102237.75;;;3.54;100.00
73679;BME280;61978;52.742;16.962;2022-12-01T06:38:47;102248.06;;;3.46;100.00
73679;BME280;61978;52.742;16.962;2022-12-01T06:41:15;102255.98;;;3.40;100.00
73679;BME280;61978;52.742;16.962;2022-12-01T06:43:41;102244.25;;;3.50;100.00
73679;BME280;61978;52.742;16.962;2022-12-01T06:46:08;102248.97;;;3.52;100.00
73679;BME280;61978;52.742;16.962;2022-12-01T06:48:42;102243.23;;;3.58;100.00
73679;BME280;61978;52.742;16.962;2022-12-01T06:51:19;102258.44;;;3.56;100.00
73679;BME280;61978;52.742;16.962;2022-12-01T06:53:46;102263.38;;;3.55;100.00
73679;BME280;61978;52.742;16.962;2022-12-01T06:56:13;102264.41;;;3.59;100.00
73679;BME280;61978;52.742;16.962;2022-12-01T06:58:42;102250.57;;;3.67;100.00
73679;BME280;61978;52.742;16.962;2022-12-01T07:01:10;102258.84;;;3.62;100.00
73679;BME280;61978;52.742;16.962;2022-12-01T07:03:39;102261.50;;;3.62;100.00
73679;BME280;61978;52.742;16.962;2022-12-01T07:06:06;102259.48;;;3.66;100.00
73679;BME280;61978;52.742;16.962;2022-12-01T07:08:38;102260.05;;;3.71;100.00
73679;BME280;61978;52.742;16.962;2022-12-01T07:11:14;102270.71;;;3.64;100.00
73679;BME280;61978;52.742;16.962;2022-12-01T07:13:43;102264.29;;;3.73;100.00
73679;BME280;61978;52.742;16.962;2022-12-01T07:16:16;102265.49;;;3.75;100.00
73679;BME280;61978;52.742;16.962;2022-12-01T07:18:49;102258.69;;;3.83;100.00
73679;BME280;61978;52.742;16.962;2022-12-01T07:21:19;102270.55;;;3.85;100.00
73679;BME280;61978;52.742;16.962;2022-12-01T07:23:48;102277.67;;;3.84;100.00
73679;BME280;61978;52.742;16.962;2022-12-01T07:26:18;102280.24;;;3.86;100.00
73679;BME280;61978;52.742;16.962;2022-12-01T07:28:47;102281.50;;;3.93;100.00
73679;BME280;61978;52.742;16.962;2022-12-01T07:31:17;102284.45;;;4.01;100.00
73679;BME280;61978;52.742;16.962;2022-12-01T07:33:45;102287.75;;;4.05;100.00
73679;BME280;61978;52.742;16.962;2022-12-01T07:36:14;102291.87;;;4.03;100.00
73679;BME280;61978;52.742;16.962;2022-12-01T07:38:43;102301.60;;;3.97;100.00
73679;BME280;61978;52.742;16.962;2022-12-01T07:41:12;102299.84;;;4.03;100.00
73679;BME280;61978;52.742;16.962;2022-12-01T07:43:41;102291.79;;;4.10;100.00
73679;BME280;61978;52.742;16.962;2022-12-01T07:46:20;102292.43;;;4.14;100.00
73679;BME280;61978;52.742;16.962;2022-12-01T07:48:46;102307.02;;;4.08;100.00
73679;BME280;61978;52.742;16.962;2022-12-01T07:51:16;102303.48;;;4.20;100.00
73679;BME280;61978;52.742;16.962;2022-12-01T07:53:45;102317.73;;;4.19;100.00
73679;BME280;61978;52.742;16.962;2022-12-01T07:56:13;102324.25;;;4.15;100.00
73679;BME280;61978;52.742;16.962;2022-12-01T07:58:42;102323.81;;;4.21;100.00
73679;BME280;61978;52.742;16.962;2022-12-01T08:01:13;102326.09;;;4.20;100.00
73679;BME280;61978;52.742;16.962;2022-12-01T08:03:42;102318.16;;;4.26;100.00
73679;BME280;61978;52.742;16.962;2022-12-01T08:06:09;102329.74;;;4.25;100.00
73679;BME280;61978;52.742;16.962;2022-12-01T08:08:39;102340.08;;;4.17;100.00
73679;BME280;61978;52.742;16.962;2022-12-01T08:11:14;102328.75;;;4.20;100.00
73679;BME280;61978;52.742;16.962;2022-12-01T08:13:43;102328.37;;;4.19;100.00
73679;BME280;61978;52.742;16.962;2022-12-01T08:16:14;102324.98;;;4.17;100.00
73679;BME280;61978;52.742;16.962;2022-12-01T08:18:42;102317.38;;;4.18;100.00
73679;BME280;61978;52.742;16.962;2022-12-01T08:21:14;102323.65;;;4.17;100.00
73679;BME280;61978;52.742;16.962;2022-12-01T08:23:42;102320.61;;;4.16;100.00
73679;BME280;61978;52.742;16.962;2022-12-01T08:26:15;102314.34;;;4.17;100.00
73679;BME280;61978;52.742;16.962;2022-12-01T08:28:46;102310.39;;;4.23;100.00
73679;BME280;61978;52.742;16.962;2022-12-01T08:33:48;102332.65;;;4.09;100.00
73679;BME280;61978;52.742;16.962;2022-12-01T08:36:17;102314.77;;;4.11;100.00
73679;BME280;61978;52.742;16.962;2022-12-01T08:38:49;102303.48;;;4.20;100.00
73679;BME280;61978;52.742;16.962;2022-12-01T08:41:18;102307.05;;;4.26;100.00
73679;BME280;61978;52.742;16.962;2022-12-01T08:43:49;102310.66;;;4.25;100.00
73679;BME280;61978;52.742;16.962;2022-12-01T08:46:16;102304.90;;;4.31;100.00
73679;BME280;61978;52.742;16.962;2022-12-01T08:48:42;102313.22;;;4.27;100.00
73679;BME280;61978;52.742;16.962;2022-12-01T08:51:15;102319.96;;;4.25;100.00
73679;BME280;61978;52.742;16.962;2022-12-01T08:53:45;102322.41;;;4.16;100.00
73679;BME280;61978;52.742;16.962;2022-12-01T08:58:42;102316.84;;;4.13;100.00
73679;BME280;61978;52.742;16.962;2022-12-01T09:01:14;102317.43;;;4.11;100.00
73679;BME280;61978;52.742;16.962;2022-12-01T09:03:43;102302.97;;;4.15;100.00
73679;BME280;61978;52.742;16.962;2022-12-01T09:06:13;102303.45;;;4.15;100.00
73679;BME280;61978;52.742;16.962;2022-12-01T09:08:43;102297.78;;;4.19;100.00
73679;BME280;61978;52.742;16.962;2022-12-01T09:11:13;102312.71;;;4.09;100.00
73679;BME280;61978;52.742;16.962;2022-12-01T09:13:42;102295.00;;;4.15;100.00
73679;BME280;61978;52.742;16.962;2022-12-01T09:16:13;102293.33;;;4.20;100.00
73679;BME280;61978;52.742;16.962;2022-12-01T09:18:42;102289.81;;;4.19;100.00
73679;BME280;61978;52.742;16.962;2022-12-01T09:21:17;102298.13;;;4.15;100.00
73679;BME280;61978;52.742;16.962;2022-12-01T09:23:44;102287.63;;;4.19;100.00
73679;BME280;61978;52.742;16.962;2022-12-01T09:26:11;102285.34;;;4.20;100.00
73679;BME280;61978;52.742;16.962;2022-12-01T09:28:41;102280.50;;;4.19;100.00
73679;BME280;61978;52.742;16.962;2022-12-01T09:31:09;102284.70;;;4.16;100.00
73679;BME280;61978;52.742;16.962;2022-12-01T09:33:37;102280.50;;;4.19;100.00
73679;BME280;61978;52.742;16.962;2022-12-01T09:36:05;102279.94;;;4.21;100.00
73679;BME280;61978;52.742;16.962;2022-12-01T09:38:34;102284.14;;;4.18;100.00
73679;BME280;61978;52.742;16.962;2022-12-01T09:41:05;102286.59;;;4.09;100.00
73679;BME280;61978;52.742;16.962;2022-12-01T09:43:39;102271.95;;;4.21;100.00
73679;BME280;61978;52.742;16.962;2022-12-01T09:46:12;102279.61;;;4.13;100.00
73679;BME280;61978;52.742;16.962;2022-12-01T09:48:44;102270.84;;;4.18;100.00
73679;BME280;61978;52.742;16.962;2022-12-01T09:51:21;102271.45;;;4.22;100.00
73679;BME280;61978;52.742;16.962;2022-12-01T09:53:55;102281.83;;;4.19;100.00
73679;BME280;61978;52.742;16.962;2022-12-01T09:56:25;102271.14;;;4.26;100.00
73679;BME280;61978;52.742;16.962;2022-12-01T09:58:58;102280.06;;;4.25;100.00
73679;BME280;61978;52.742;16.962;2022-12-01T10:01:36;102274.31;;;4.31;100.00
73679;BME280;61978;52.742;16.962;2022-12-01T10:04:24;102279.19;;;4.37;100.00
73679;BME280;61978;52.742;16.962;2022-12-01T10:07:02;102279.57;;;4.38;100.00
73679;BME280;61978;52.742;16.962;2022-12-01T10:09:57;102298.03;;;4.34;100.00
73679;BME280;61978;52.742;16.962;2022-12-01T10:12:24;102296.05;;;4.43;100.00
73679;BME280;61978;52.742;16.962;2022-12-01T10:23:30;102294.84;;;4.60;100.00
73679;BME280;61978;52.742;16.962;2022-12-01T10:26:01;102316.07;;;4.55;100.00
73679;BME280;61978;52.742;16.962;2022-12-01T10:31:10;102277.25;;;4.76;100.00
73679;BME280;61978;52.742;16.962;2022-12-01T10:33:59;102291.55;;;4.75;100.00
73679;BME280;61978;52.742;16.962;2022-12-01T10:36:25;102311.35;;;4.71;100.00
73679;BME280;61978;52.742;16.962;2022-12-01T10:38:54;102317.13;;;4.65;100.00
73679;BME280;61978;52.742;16.962;2022-12-01T10:41:26;102304.98;;;4.79;100.00
73679;BME280;61978;52.742;16.962;2022-12-01T10:43:58;102311.31;;;4.83;100.00
73679;BME280;61978;52.742;16.962;2022-12-01T10:46:48;102302.30;;;4.97;100.00
73679;BME280;61978;52.742;16.962;2022-12-01T10:49:16;102316.56;;;4.96;100.00
73679;BME280;61978;52.742;16.962;2022-12-01T10:51:56;102322.12;;;4.93;100.00
73679;BME280;61978;52.742;16.962;2022-12-01T10:54:39;102345.83;;;4.72;100.00
73679;BME280;61978;52.742;16.962;2022-12-01T10:57:13;102317.72;;;4.81;100.00
73679;BME280;61978;52.742;16.962;2022-12-01T10:59:51;102302.13;;;4.87;100.00
73679;BME280;61978;52.742;16.962;2022-12-01T11:02:24;102315.53;;;4.80;100.00
73679;BME280;61978;52.742;16.962;2022-12-01T11:05:02;102301.39;;;4.85;100.00
73679;BME280;61978;52.742;16.962;2022-12-01T11:07:44;102280.91;;;4.98;100.00
73679;BME280;61978;52.742;16.962;2022-12-01T11:10:15;102292.94;;;4.86;100.00
73679;BME280;61978;52.742;16.962;2022-12-01T11:12:45;102303.14;;;4.74;100.00
73679;BME280;61978;52.742;16.962;2022-12-01T11:15:27;102303.75;;;4.72;100.00
73679;BME280;61978;52.742;16.962;2022-12-01T11:18:00;102291.67;;;4.79;100.00
73679;BME280;61978;52.742;16.962;2022-12-01T11:20:31;102307.20;;;4.67;100.00
73679;BME280;61978;52.742;16.962;2022-12-01T11:34:18;102243.09;;;4.93;100.00
73679;BME280;61978;52.742;16.962;2022-12-01T11:36:48;102243.03;;;5.06;100.00
73679;BME280;61978;52.742;16.962;2022-12-01T11:44:33;102243.06;;;5.17;100.00
73679;BME280;61978;52.742;16.962;2022-12-01T11:47:18;102240.64;;;5.20;100.00
73679;BME280;61978;52.742;16.962;2022-12-01T11:49:52;102220.88;;;5.40;100.00
73679;BME280;61978;52.742;16.962;2022-12-01T11:52:31;102232.34;;;5.35;100.00
73679;BME280;61978;52.742;16.962;2022-12-01T11:55:19;102232.86;;;5.40;100.00
73679;BME280;61978;52.742;16.962;2022-12-01T11:57:31;102242.53;;;5.41;100.00
73679;BME280;61978;52.742;16.962;2022-12-01T11:59:59;102245.43;;;5.38;100.00
73679;BME280;61978;52.742;16.962;2022-12-01T12:02:29;102247.98;;;5.34;100.00
73679;BME280;61978;52.742;16.962;2022-12-01T12:14:02;102252.56;;;5.32;100.00
73679;BME280;61978;52.742;16.962;2022-12-01T12:25:06;102241.48;;;5.15;100.00
73679;BME280;61978;52.742;16.962;2022-12-01T12:28:05;102217.67;;;5.24;100.00
73679;BME280;61978;52.742;16.962;2022-12-01T12:30:31;102226.73;;;5.16;100.00
73679;BME280;61978;52.742;16.962;2022-12-01T12:35:57;102209.77;;;5.17;100.00
73679;BME280;61978;52.742;16.962;2022-12-01T12:38:43;102198.77;;;5.16;100.00
73679;BME280;61978;52.742;16.962;2022-12-01T12:49:26;102210.23;;;5.11;100.00
73679;BME280;61978;52.742;16.962;2022-12-01T12:52:03;102211.44;;;5.01;100.00
73679;BME280;61978;52.742;16.962;2022-12-01T12:54:45;102203.31;;;5.03;100.00
73679;BME280;61978;52.742;16.962;2022-12-01T12:59:54;102210.22;;;4.71;100.00
73679;BME280;61978;52.742;16.962;2022-12-01T13:02:42;102194.47;;;4.68;100.00
73679;BME280;61978;52.742;16.962;2022-12-01T13:05:38;102175.69;;;4.64;100.00
73679;BME280;61978;52.742;16.962;2022-12-01T13:16:29;102142.22;;;4.43;100.00
73679;BME280;61978;52.742;16.962;2022-12-01T13:19:15;102138.33;;;4.36;100.00
73679;BME280;61978;52.742;16.962;2022-12-01T13:21:47;102113.20;;;4.45;100.00
73679;BME280;61978;52.742;16.962;2022-12-01T13:24:23;102121.14;;;4.34;100.00
73679;BME280;61978;52.742;16.962;2022-12-01T13:26:49;102115.82;;;4.34;100.00
73679;BME280;61978;52.742;16.962;2022-12-01T13:29:18;102103.60;;;4.32;100.00
73679;BME280;61978;52.742;16.962;2022-12-01T13:31:48;102110.66;;;4.38;100.00
73679;BME280;61978;52.742;16.962;2022-12-01T13:34:30;102117.80;;;4.20;100.00
73679;BME280;61978;52.742;16.962;2022-12-01T13:36:56;102098.64;;;4.27;100.00
73679;BME280;61978;52.742;16.962;2022-12-01T13:39:31;102108.42;;;4.27;100.00
73679;BME280;61978;52.742;16.962;2022-12-01T13:42:15;102099.84;;;4.29;100.00
73679;BME280;61978;52.742;16.962;2022-12-01T13:44:41;102095.00;;;4.28;100.00
73679;BME280;61978;52.742;16.962;2022-12-01T13:47:28;102097.08;;;4.30;100.00
73679;BME280;61978;52.742;16.962;2022-12-01T13:49:45;102098.64;;;4.27;100.00
73679;BME280;61978;52.742;16.962;2022-12-01T13:57:42;102084.09;;;4.20;100.00
73679;BME280;61978;52.742;16.962;2022-12-01T14:00:25;102089.28;;;4.22;100.00
73679;BME280;61978;52.742;16.962;2022-12-01T14:05:56;102090.61;;;4.22;100.00
73679;BME280;61978;52.742;16.962;2022-12-01T14:08:32;102088.23;;;4.24;100.00
73679;BME280;61978;52.742;16.962;2022-12-01T14:11:04;102095.83;;;4.23;100.00
73679;BME280;61978;52.742;16.962;2022-12-01T14:16:22;102087.67;;;4.14;100.00
73679;BME280;61978;52.742;16.962;2022-12-01T14:18:54;102091.19;;;4.14;100.00
73679;BME280;61978;52.742;16.962;2022-12-01T14:22:05;102097.36;;;4.15;100.00
73679;BME280;61978;52.742;16.962;2022-12-01T14:24:04;102098.44;;;4.12;100.00
73679;BME280;61978;52.742;16.962;2022-12-01T14:26:28;102102.44;;;4.12;100.00
73679;BME280;61978;52.742;16.962;2022-12-01T14:34:14;102102.91;;;4.12;100.00
73679;BME280;61978;52.742;16.962;2022-12-01T14:37:15;102106.64;;;4.09;100.00
73679;BME280;61978;52.742;16.962;2022-12-01T14:39:57;102115.06;;;4.03;100.00
73679;BME280;61978;52.742;16.962;2022-12-01T14:45:34;102099.34;;;4.00;100.00
73679;BME280;61978;52.742;16.962;2022-12-01T14:48:14;102105.73;;;3.98;100.00
73679;BME280;61978;52.742;16.962;2022-12-01T14:50:49;102102.66;;;4.09;100.00
73679;BME280;61978;52.742;16.962;2022-12-01T14:53:30;102106.99;;;4.10;100.00
73679;BME280;61978;52.742;16.962;2022-12-01T14:56:16;102101.95;;;4.13;100.00
73679;BME280;61978;52.742;16.962;2022-12-01T14:58:58;102108.92;;;4.08;100.00
73679;BME280;61978;52.742;16.962;2022-12-01T15:01:35;102110.00;;;4.06;100.00